sensor_id;sensor_type;location;lat;lon;timestamp;temperature;humidity
2054;DHT22;1032;52.542;13.440;2023-01-16T00:01:19;6.10;99.90
2054;DHT22;1032;52.542;13.440;2023-01-16T00:03:46;6.20;99.90
2054;DHT22;1032;52.542;13.440;2023-01-16T00:06:13;6.40;99.90
2054;DHT22;1032;52.542;13.440;2023-01-16T00:08:40;6.20;99.90
2054;DHT22;1032;52.542;13.440;2023-01-16T00:11:09;5.80;99.90
2054;DHT22;1032;52.542;13.440;2023-01-16T00:13:36;6.50;99.90
2054;DHT22;1032;52.542;13.440;2023-01-16T00:16:03;6.50;99.90
2054;DHT22;1032;52.542;13.440;2023-01-16T00:18:30;6.50;99.90
2054;DHT22;1032;52.542;13.440;2023-01-16T00:20:57;6.40;99.90
2054;DHT22;1032;52.542;13.440;2023-01-16T00:23:24;6.70;99.90
2054;DHT22;1032;52.542;13.440;2023-01-16T00:25:50;6.20;99.90
2054;DHT22;1032;52.542;13.440;2023-01-16T00:28:18;6.60;99.90
2054;DHT22;1032;52.542;13.440;2023-01-16T00:30:45;6.50;99.90
2054;DHT22;1032;52.542;13.440;2023-01-16T00:33:12;6.60;99.90
2054;DHT22;1032;52.542;13.440;2023-01-16T00:35:39;7.30;99.90
2054;DHT22;1032;52.542;13.440;2023-01-16T00:38:06;6.70;99.90
2054;DHT22;1032;52.542;13.440;2023-01-16T00:40:32;6.60;99.90
2054;DHT22;1032;52.542;13.440;2023-01-16T00:42:59;6.50;99.90
2054;DHT22;1032;52.542;13.440;2023-01-16T00:45:27;6.70;99.90
2054;DHT22;1032;52.542;13.440;2023-01-16T00:47:53;7.30;99.90
2054;DHT22;1032;52.542;13.440;2023-01-16T00:50:20;6.70;99.90
2054;DHT22;1032;52.542;13.440;2023-01-16T00:52:47;6.70;99.90
2054;DHT22;1032;52.542;13.440;2023-01-16T00:55:13;6.80;99.90
2054;DHT22;1032;52.542;13.440;2023-01-16T00:57:40;7.10;99.90
2054;DHT22;1032;52.542;13.440;2023-01-16T01:00:08;6.60;99.90
2054;DHT22;1032;52.542;13.440;2023-01-16T01:02:36;6.70;99.90
2054;DHT22;1032;52.542;13.440;2023-01-16T01:05:03;7.10;99.90
2054;DHT22;1032;52.542;13.440;2023-01-16T01:07:31;6.80;99.90
2054;DHT22;1032;52.542;13.440;2023-01-16T01:09:58;7.00;99.90
2054;DHT22;1032;52.542;13.440;2023-01-16T01:12:24;6.70;99.90
2054;DHT22;1032;52.542;13.440;2023-01-16T01:14:51;6.80;99.90
2054;DHT22;1032;52.542;13.440;2023-01-16T01:17:17;6.60;99.90
2054;DHT22;1032;52.542;13.440;2023-01-16T01:19:45;6.90;99.90
2054;DHT22;1032;52.542;13.440;2023-01-16T01:22:12;6.70;99.90
2054;DHT22;1032;52.542;13.440;2023-01-16T01:24:38;6.70;99.90
2054;DHT22;1032;52.542;13.440;2023-01-16T01:27:05;6.60;99.90
2054;DHT22;1032;52.542;13.440;2023-01-16T01:29:32;6.80;99.90
2054;DHT22;1032;52.542;13.440;2023-01-16T01:31:58;6.60;99.90
2054;DHT22;1032;52.542;13.440;2023-01-16T01:34:26;6.60;99.90
2054;DHT22;1032;52.542;13.440;2023-01-16T01:36:55;6.30;99.90
2054;DHT22;1032;52.542;13.440;2023-01-16T01:39:22;5.90;99.90
2054;DHT22;1032;52.542;13.440;2023-01-16T01:41:48;6.30;99.90
2054;DHT22;1032;52.542;13.440;2023-01-16T01:44:51;6.30;99.90
2054;DHT22;1032;52.542;13.440;2023-01-16T01:47:21;6.20;99.90
2054;DHT22;1032;52.542;13.440;2023-01-16T01:49:50;6.20;99.90
2054;DHT22;1032;52.542;13.440;2023-01-16T01:52:20;6.30;99.90
2054;DHT22;1032;52.542;13.440;2023-01-16T01:54:49;6.30;99.90
2054;DHT22;1032;52.542;13.440;2023-01-16T01:57:19;6.10;99.90
2054;DHT22;1032;52.542;13.440;2023-01-16T01:59:53;6.20;99.90
2054;DHT22;1032;52.542;13.440;2023-01-16T02:02:23;6.10;99.90
2054;DHT22;1032;52.542;13.440;2023-01-16T02:04:53;6.10;99.90
2054;DHT22;1032;52.542;13.440;2023-01-16T02:07:25;6.30;99.90
2054;DHT22;1032;52.542;13.440;2023-01-16T02:09:59;6.50;99.90
2054;DHT22;1032;52.542;13.440;2023-01-16T02:12:27;6.30;99.90
2054;DHT22;1032;52.542;13.440;2023-01-16T02:14:55;5.80;99.90
2054;DHT22;1032;52.542;13.440;2023-01-16T02:17:22;6.20;99.90
2054;DHT22;1032;52.542;13.440;2023-01-16T02:20:16;7.00;99.90
2054;DHT22;1032;52.542;13.440;2023-01-16T02:23:19;6.40;99.90
2054;DHT22;1032;52.542;13.440;2023-01-16T02:31:53;6.50;99.90
2054;DHT22;1032;52.542;13.440;2023-01-16T02:34:47;6.20;99.90
2054;DHT22;1032;52.542;13.440;2023-01-16T02:37:24;6.60;99.90
2054;DHT22;1032;52.542;13.440;2023-01-16T02:40:01;6.50;99.90
2054;DHT22;1032;52.542;13.440;2023-01-16T02:42:34;6.60;99.90
2054;DHT22;1032;52.542;13.440;2023-01-16T02:45:17;6.50;99.90
2054;DHT22;1032;52.542;13.440;2023-01-16T02:47:51;6.70;99.90
2054;DHT22;1032;52.542;13.440;2023-01-16T02:50:26;6.60;99.90
2054;DHT22;1032;52.542;13.440;2023-01-16T02:52:57;6.00;99.90
2054;DHT22;1032;52.542;13.440;2023-01-16T02:55:28;6.30;99.90
2054;DHT22;1032;52.542;13.440;2023-01-16T02:58:00;6.40;99.90
2054;DHT22;1032;52.542;13.440;2023-01-16T03:00:28;6.50;99.90
2054;DHT22;1032;52.542;13.440;2023-01-16T03:02:56;6.60;99.90
2054;DHT22;1032;52.542;13.440;2023-01-16T03:05:24;6.60;99.90
2054;DHT22;1032;52.542;13.440;2023-01-16T03:08:05;6.60;99.90
2054;DHT22;1032;52.542;13.440;2023-01-16T03:10:45;6.10;99.90
2054;DHT22;1032;52.542;13.440;2023-01-16T03:13:25;6.10;99.90
2054;DHT22;1032;52.542;13.440;2023-01-16T03:16:01;6.50;99.90
2054;DHT22;1032;52.542;13.440;2023-01-16T03:18:35;6.80;99.90
2054;DHT22;1032;52.542;13.440;2023-01-16T03:21:12;6.50;99.90
2054;DHT22;1032;52.542;13.440;2023-01-16T03:23:48;6.80;99.90
2054;DHT22;1032;52.542;13.440;2023-01-16T03:26:23;6.60;99.90
2054;DHT22;1032;52.542;13.440;2023-01-16T03:28:58;6.60;99.90
2054;DHT22;1032;52.542;13.440;2023-01-16T03:31:33;6.20;99.90
2054;DHT22;1032;52.542;13.440;2023-01-16T03:34:11;6.20;99.90
2054;DHT22;1032;52.542;13.440;2023-01-16T03:36:45;6.20;99.90
2054;DHT22;1032;52.542;13.440;2023-01-16T03:39:13;6.40;99.90
2054;DHT22;1032;52.542;13.440;2023-01-16T03:41:41;6.20;99.90
2054;DHT22;1032;52.542;13.440;2023-01-16T03:44:13;6.20;99.90
2054;DHT22;1032;52.542;13.440;2023-01-16T03:46:45;6.80;99.90
2054;DHT22;1032;52.542;13.440;2023-01-16T03:49:17;6.20;99.90
2054;DHT22;1032;52.542;13.440;2023-01-16T03:51:49;5.90;99.90
2054;DHT22;1032;52.542;13.440;2023-01-16T03:54:25;6.30;99.90
2054;DHT22;1032;52.542;13.440;2023-01-16T03:56:59;5.90;99.90
2054;DHT22;1032;52.542;13.440;2023-01-16T03:59:30;6.10;99.90
2054;DHT22;1032;52.542;13.440;2023-01-16T04:01:58;6.30;99.90
2054;DHT22;1032;52.542;13.440;2023-01-16T04:04:33;6.40;99.90
2054;DHT22;1032;52.542;13.440;2023-01-16T04:07:06;5.70;99.90
2054;DHT22;1032;52.542;13.440;2023-01-16T04:09:38;6.30;99.90
2054;DHT22;1032;52.542;13.440;2023-01-16T04:12:07;6.20;99.90
2054;DHT22;1032;52.542;13.440;2023-01-16T04:14:36;6.00;99.90
2054;DHT22;1032;52.542;13.440;2023-01-16T04:17:04;6.20;99.90
2054;DHT22;1032;52.542;13.440;2023-01-16T04:19:33;6.20;99.90
2054;DHT22;1032;52.542;13.440;2023-01-16T04:22:05;6.50;99.90
2054;DHT22;1032;52.542;13.440;2023-01-16T04:24:32;6.10;99.90
2054;DHT22;1032;52.542;13.440;2023-01-16T04:26:59;6.20;99.90
2054;DHT22;1032;52.542;13.440;2023-01-16T04:29:26;6.40;99.90
2054;DHT22;1032;52.542;13.440;2023-01-16T04:31:52;5.70;99.90
2054;DHT22;1032;52.542;13.440;2023-01-16T04:34:19;6.20;99.90
2054;DHT22;1032;52.542;13.440;2023-01-16T04:36:47;6.10;99.90
2054;DHT22;1032;52.542;13.440;2023-01-16T04:39:13;6.00;99.90
2054;DHT22;1032;52.542;13.440;2023-01-16T04:41:40;5.60;99.90
2054;DHT22;1032;52.542;13.440;2023-01-16T04:44:08;5.90;99.90
2054;DHT22;1032;52.542;13.440;2023-01-16T04:46:36;5.90;99.90
2054;DHT22;1032;52.542;13.440;2023-01-16T04:49:03;5.80;99.90
2054;DHT22;1032;52.542;13.440;2023-01-16T04:51:30;6.00;99.90
2054;DHT22;1032;52.542;13.440;2023-01-16T04:53:58;5.90;99.90
2054;DHT22;1032;52.542;13.440;2023-01-16T04:56:25;5.70;99.90
2054;DHT22;1032;52.542;13.440;2023-01-16T04:58:51;5.80;99.90
2054;DHT22;1032;52.542;13.440;2023-01-16T05:01:20;5.90;99.90
2054;DHT22;1032;52.542;13.440;2023-01-16T05:03:47;5.30;99.90
2054;DHT22;1032;52.542;13.440;2023-01-16T05:06:13;5.80;99.90
2054;DHT22;1032;52.542;13.440;2023-01-16T05:08:40;5.90;99.90
2054;DHT22;1032;52.542;13.440;2023-01-16T05:11:08;5.80;99.90
2054;DHT22;1032;52.542;13.440;2023-01-16T05:13:35;5.80;99.90
2054;DHT22;1032;52.542;13.440;2023-01-16T05:16:01;6.00;99.90
2054;DHT22;1032;52.542;13.440;2023-01-16T05:18:28;5.60;99.90
2054;DHT22;1032;52.542;13.440;2023-01-16T05:20:55;5.80;99.90
2054;DHT22;1032;52.542;13.440;2023-01-16T05:23:22;5.40;99.90
2054;DHT22;1032;52.542;13.440;2023-01-16T05:25:48;5.90;99.90
2054;DHT22;1032;52.542;13.440;2023-01-16T05:28:16;5.80;99.90
2054;DHT22;1032;52.542;13.440;2023-01-16T05:30:43;5.90;99.90
2054;DHT22;1032;52.542;13.440;2023-01-16T05:33:09;6.10;99.90
2054;DHT22;1032;52.542;13.440;2023-01-16T05:35:36;5.80;99.90
2054;DHT22;1032;52.542;13.440;2023-01-16T05:38:03;6.40;99.90
2054;DHT22;1032;52.542;13.440;2023-01-16T05:40:29;6.10;99.90
2054;DHT22;1032;52.542;13.440;2023-01-16T05:42:56;5.70;99.90
2054;DHT22;1032;52.542;13.440;2023-01-16T05:45:24;6.10;99.90
2054;DHT22;1032;52.542;13.440;2023-01-16T05:47:50;6.10;99.90
2054;DHT22;1032;52.542;13.440;2023-01-16T05:50:17;6.20;99.90
2054;DHT22;1032;52.542;13.440;2023-01-16T05:52:47;6.10;99.90
2054;DHT22;1032;52.542;13.440;2023-01-16T05:55:14;6.30;99.90
2054;DHT22;1032;52.542;13.440;2023-01-16T05:57:41;6.20;99.90
2054;DHT22;1032;52.542;13.440;2023-01-16T06:00:08;6.20;99.90
2054;DHT22;1032;52.542;13.440;2023-01-16T06:02:37;6.10;99.90
2054;DHT22;1032;52.542;13.440;2023-01-16T06:05:04;6.00;99.90
2054;DHT22;1032;52.542;13.440;2023-01-16T06:07:31;6.10;99.90
2054;DHT22;1032;52.542;13.440;2023-01-16T06:09:58;6.40;99.90
2054;DHT22;1032;52.542;13.440;2023-01-16T06:12:24;6.10;99.90
2054;DHT22;1032;52.542;13.440;2023-01-16T06:14:51;6.30;99.90
2054;DHT22;1032;52.542;13.440;2023-01-16T06:17:18;6.30;99.90
2054;DHT22;1032;52.542;13.440;2023-01-16T06:19:46;5.80;99.90
2054;DHT22;1032;52.542;13.440;2023-01-16T06:22:13;6.30;99.90
2054;DHT22;1032;52.542;13.440;2023-01-16T06:24:40;6.20;99.90
2054;DHT22;1032;52.542;13.440;2023-01-16T06:27:06;6.30;99.90
2054;DHT22;1032;52.542;13.440;2023-01-16T06:29:33;6.10;99.90
2054;DHT22;1032;52.542;13.440;2023-01-16T06:32:00;6.60;99.90
2054;DHT22;1032;52.542;13.440;2023-01-16T06:34:26;6.30;99.90
2054;DHT22;1032;52.542;13.440;2023-01-16T06:36:54;6.10;99.90
2054;DHT22;1032;52.542;13.440;2023-01-16T06:39:21;5.70;99.90
2054;DHT22;1032;52.542;13.440;2023-01-16T06:41:47;6.30;99.90
2054;DHT22;1032;52.542;13.440;2023-01-16T06:44:14;6.20;99.90
2054;DHT22;1032;52.542;13.440;2023-01-16T06:46:41;6.20;99.90
2054;DHT22;1032;52.542;13.440;2023-01-16T06:49:09;6.20;99.90
2054;DHT22;1032;52.542;13.440;2023-01-16T06:51:35;6.10;99.90
2054;DHT22;1032;52.542;13.440;2023-01-16T06:54:04;6.30;99.90
2054;DHT22;1032;52.542;13.440;2023-01-16T06:56:30;5.70;99.90
2054;DHT22;1032;52.542;13.440;2023-01-16T06:58:57;6.10;99.90
2054;DHT22;1032;52.542;13.440;2023-01-16T07:01:23;6.20;99.90
2054;DHT22;1032;52.542;13.440;2023-01-16T07:03:50;6.40;99.90
2054;DHT22;1032;52.542;13.440;2023-01-16T07:06:17;6.20;99.90
2054;DHT22;1032;52.542;13.440;2023-01-16T07:08:43;6.30;99.90
2054;DHT22;1032;52.542;13.440;2023-01-16T07:11:11;6.30;99.90
2054;DHT22;1032;52.542;13.440;2023-01-16T07:13:38;6.30;99.90
2054;DHT22;1032;52.542;13.440;2023-01-16T07:16:05;6.30;99.90
2054;DHT22;1032;52.542;13.440;2023-01-16T07:18:49;6.30;99.90
2054;DHT22;1032;52.542;13.440;2023-01-16T07:21:33;5.80;99.90
2054;DHT22;1032;52.542;13.440;2023-01-16T07:24:20;6.00;99.90
2054;DHT22;1032;52.542;13.440;2023-01-16T07:26:52;6.20;99.90
2054;DHT22;1032;52.542;13.440;2023-01-16T07:29:22;6.30;99.90
2054;DHT22;1032;52.542;13.440;2023-01-16T07:31:49;6.10;99.90
2054;DHT22;1032;52.542;13.440;2023-01-16T07:34:16;6.10;99.90
2054;DHT22;1032;52.542;13.440;2023-01-16T07:36:43;6.20;99.90
2054;DHT22;1032;52.542;13.440;2023-01-16T07:39:09;5.70;99.90
2054;DHT22;1032;52.542;13.440;2023-01-16T07:41:36;6.30;99.90
2054;DHT22;1032;52.542;13.440;2023-01-16T07:44:04;6.00;99.90
2054;DHT22;1032;52.542;13.440;2023-01-16T07:46:31;6.00;99.90
2054;DHT22;1032;52.542;13.440;2023-01-16T07:48:58;5.80;99.90
2054;DHT22;1032;52.542;13.440;2023-01-16T07:51:25;5.90;99.90
2054;DHT22;1032;52.542;13.440;2023-01-16T07:53:51;6.20;99.90
2054;DHT22;1032;52.542;13.440;2023-01-16T07:56:18;6.00;99.90
2054;DHT22;1032;52.542;13.440;2023-01-16T07:58:44;6.40;99.90
2054;DHT22;1032;52.542;13.440;2023-01-16T08:01:13;6.30;99.90
2054;DHT22;1032;52.542;13.440;2023-01-16T08:03:39;6.00;99.90
2054;DHT22;1032;52.542;13.440;2023-01-16T08:06:07;6.00;99.90
2054;DHT22;1032;52.542;13.440;2023-01-16T08:08:33;5.90;99.90
2054;DHT22;1032;52.542;13.440;2023-01-16T08:11:01;6.00;99.90
2054;DHT22;1032;52.542;13.440;2023-01-16T08:13:50;5.90;99.90
2054;DHT22;1032;52.542;13.440;2023-01-16T08:16:18;6.00;99.90
2054;DHT22;1032;52.542;13.440;2023-01-16T08:18:44;6.10;99.90
2054;DHT22;1032;52.542;13.440;2023-01-16T08:21:14;5.80;99.90
2054;DHT22;1032;52.542;13.440;2023-01-16T08:23:41;6.20;99.90
2054;DHT22;1032;52.542;13.440;2023-01-16T08:26:08;6.10;99.90
2054;DHT22;1032;52.542;13.440;2023-01-16T08:28:34;6.40;99.90
2054;DHT22;1032;52.542;13.440;2023-01-16T08:31:03;6.00;99.90
2054;DHT22;1032;52.542;13.440;2023-01-16T08:33:34;6.50;99.90
2054;DHT22;1032;52.542;13.440;2023-01-16T08:36:01;6.40;99.90
2054;DHT22;1032;52.542;13.440;2023-01-16T08:38:27;6.40;99.90
2054;DHT22;1032;52.542;13.440;2023-01-16T08:40:54;6.60;99.90
2054;DHT22;1032;52.542;13.440;2023-01-16T08:43:21;6.40;99.90
2054;DHT22;1032;52.542;13.440;2023-01-16T08:46:15;6.50;99.90
2054;DHT22;1032;52.542;13.440;2023-01-16T08:49:05;6.40;99.90
2054;DHT22;1032;52.542;13.440;2023-01-16T08:51:54;6.90;99.90
2054;DHT22;1032;52.542;13.440;2023-01-16T08:54:21;6.60;99.90
2054;DHT22;1032;52.542;13.440;2023-01-16T08:56:47;6.10;99.90
2054;DHT22;1032;52.542;13.440;2023-01-16T08:59:14;6.80;99.90
2054;DHT22;1032;52.542;13.440;2023-01-16T09:01:41;6.50;99.90
2054;DHT22;1032;52.542;13.440;2023-01-16T09:04:09;6.40;99.90
2054;DHT22;1032;52.542;13.440;2023-01-16T09:06:36;6.50;99.90
2054;DHT22;1032;52.542;13.440;2023-01-16T09:09:03;6.50;99.90
2054;DHT22;1032;52.542;13.440;2023-01-16T09:11:30;6.60;99.90
2054;DHT22;1032;52.542;13.440;2023-01-16T09:14:14;6.60;99.90
2054;DHT22;1032;52.542;13.440;2023-01-16T09:16:41;6.50;99.90
2054;DHT22;1032;52.542;13.440;2023-01-16T09:19:09;6.60;99.90
2054;DHT22;1032;52.542;13.440;2023-01-16T09:21:36;6.60;99.90
2054;DHT22;1032;52.542;13.440;2023-01-16T09:24:03;6.30;99.90
2054;DHT22;1032;52.542;13.440;2023-01-16T09:26:30;6.40;99.90
2054;DHT22;1032;52.542;13.440;2023-01-16T09:28:57;6.70;99.90
2054;DHT22;1032;52.542;13.440;2023-01-16T09:31:23;6.60;99.90
2054;DHT22;1032;52.542;13.440;2023-01-16T09:33:50;6.50;99.90
2054;DHT22;1032;52.542;13.440;2023-01-16T09:36:19;5.90;99.90
2054;DHT22;1032;52.542;13.440;2023-01-16T09:38:46;6.50;99.90
2054;DHT22;1032;52.542;13.440;2023-01-16T09:41:15;6.70;99.90
2054;DHT22;1032;52.542;13.440;2023-01-16T09:44:06;6.60;99.90
2054;DHT22;1032;52.542;13.440;2023-01-16T09:46:36;6.60;99.90
2054;DHT22;1032;52.542;13.440;2023-01-16T09:49:07;6.80;99.90
2054;DHT22;1032;52.542;13.440;2023-01-16T09:51:42;6.90;99.90
2054;DHT22;1032;52.542;13.440;2023-01-16T09:54:35;6.60;99.90
2054;DHT22;1032;52.542;13.440;2023-01-16T09:57:21;6.70;99.90
2054;DHT22;1032;52.542;13.440;2023-01-16T10:00:08;6.60;99.90
2054;DHT22;1032;52.542;13.440;2023-01-16T10:02:36;6.50;99.90
2054;DHT22;1032;52.542;13.440;2023-01-16T10:05:04;6.50;99.90
2054;DHT22;1032;52.542;13.440;2023-01-16T10:07:45;6.80;99.90
2054;DHT22;1032;52.542;13.440;2023-01-16T10:10:23;6.50;99.90
2054;DHT22;1032;52.542;13.440;2023-01-16T10:12:58;6.80;99.90
2054;DHT22;1032;52.542;13.440;2023-01-16T10:15:32;6.70;99.90
2054;DHT22;1032;52.542;13.440;2023-01-16T10:18:13;6.60;99.90
2054;DHT22;1032;52.542;13.440;2023-01-16T10:20:54;6.90;99.90
2054;DHT22;1032;52.542;13.440;2023-01-16T10:23:39;7.00;99.90
2054;DHT22;1032;52.542;13.440;2023-01-16T10:26:08;6.80;99.90
2054;DHT22;1032;52.542;13.440;2023-01-16T10:28:50;6.80;99.90
2054;DHT22;1032;52.542;13.440;2023-01-16T10:31:22;7.10;99.90
2054;DHT22;1032;52.542;13.440;2023-01-16T10:33:54;6.60;99.90
2054;DHT22;1032;52.542;13.440;2023-01-16T10:36:26;6.80;99.90
2054;DHT22;1032;52.542;13.440;2023-01-16T10:38:59;6.40;99.90
2054;DHT22;1032;52.542;13.440;2023-01-16T10:41:27;7.00;99.90
2054;DHT22;1032;52.542;13.440;2023-01-16T10:44:23;7.40;99.90
2054;DHT22;1032;52.542;13.440;2023-01-16T10:47:13;7.10;99.90
2054;DHT22;1032;52.542;13.440;2023-01-16T10:49:57;7.10;99.90
2054;DHT22;1032;52.542;13.440;2023-01-16T10:52:24;7.40;99.90
2054;DHT22;1032;52.542;13.440;2023-01-16T10:54:54;7.30;99.90
2054;DHT22;1032;52.542;13.440;2023-01-16T10:57:22;7.30;99.90
2054;DHT22;1032;52.542;13.440;2023-01-16T10:59:50;7.50;99.90
2054;DHT22;1032;52.542;13.440;2023-01-16T11:02:19;7.30;99.90
2054;DHT22;1032;52.542;13.440;2023-01-16T11:04:49;7.20;99.90
2054;DHT22;1032;52.542;13.440;2023-01-16T11:07:17;7.40;99.90
2054;DHT22;1032;52.542;13.440;2023-01-16T11:09:45;7.20;99.90
2054;DHT22;1032;52.542;13.440;2023-01-16T11:12:18;7.30;99.90
2054;DHT22;1032;52.542;13.440;2023-01-16T11:15:13;7.60;99.90
2054;DHT22;1032;52.542;13.440;2023-01-16T11:17:57;7.70;99.90
2054;DHT22;1032;52.542;13.440;2023-01-16T11:20:42;7.50;99.90
2054;DHT22;1032;52.542;13.440;2023-01-16T11:23:16;7.90;99.90
2054;DHT22;1032;52.542;13.440;2023-01-16T11:25:44;7.90;99.90
2054;DHT22;1032;52.542;13.440;2023-01-16T11:28:18;7.80;99.90
2054;DHT22;1032;52.542;13.440;2023-01-16T11:30:47;7.60;99.90
2054;DHT22;1032;52.542;13.440;2023-01-16T11:33:15;7.80;99.90
2054;DHT22;1032;52.542;13.440;2023-01-16T11:35:50;7.90;99.90
2054;DHT22;1032;52.542;13.440;2023-01-16T11:38:17;7.90;99.90
2054;DHT22;1032;52.542;13.440;2023-01-16T11:40:46;8.50;99.90
2054;DHT22;1032;52.542;13.440;2023-01-16T11:43:17;8.10;99.90
2054;DHT22;1032;52.542;13.440;2023-01-16T11:46:06;8.20;99.90
2054;DHT22;1032;52.542;13.440;2023-01-16T11:48:38;8.10;99.90
2054;DHT22;1032;52.542;13.440;2023-01-16T11:51:08;8.10;99.80
2054;DHT22;1032;52.542;13.440;2023-01-16T11:53:36;8.20;99.80
2054;DHT22;1032;52.542;13.440;2023-01-16T11:56:17;8.20;99.70
2054;DHT22;1032;52.542;13.440;2023-01-16T11:58:58;8.00;99.70
2054;DHT22;1032;52.542;13.440;2023-01-16T12:01:40;8.10;99.80
2054;DHT22;1032;52.542;13.440;2023-01-16T12:04:29;8.20;99.60
2054;DHT22;1032;52.542;13.440;2023-01-16T12:07:01;8.00;99.60
2054;DHT22;1032;52.542;13.440;2023-01-16T12:09:45;8.30;99.80
2054;DHT22;1032;52.542;13.440;2023-01-16T12:12:18;7.40;99.50
2054;DHT22;1032;52.542;13.440;2023-01-16T12:15:13;8.00;99.90
2054;DHT22;1032;52.542;13.440;2023-01-16T12:17:58;8.20;99.60
2054;DHT22;1032;52.542;13.440;2023-01-16T12:20:33;7.90;99.20
2054;DHT22;1032;52.542;13.440;2023-01-16T12:23:20;7.90;99.20
2054;DHT22;1032;52.542;13.440;2023-01-16T12:25:55;7.90;98.80
2054;DHT22;1032;52.542;13.440;2023-01-16T12:28:31;8.10;98.90
2054;DHT22;1032;52.542;13.440;2023-01-16T12:31:11;7.60;98.90
2054;DHT22;1032;52.542;13.440;2023-01-16T12:33:59;8.20;99.30
2054;DHT22;1032;52.542;13.440;2023-01-16T12:36:36;8.20;99.20
2054;DHT22;1032;52.542;13.440;2023-01-16T12:39:12;8.10;99.00
2054;DHT22;1032;52.542;13.440;2023-01-16T12:41:44;7.50;99.00
2054;DHT22;1032;52.542;13.440;2023-01-16T12:44:43;8.30;99.40
2054;DHT22;1032;52.542;13.440;2023-01-16T12:47:30;8.20;99.10
2054;DHT22;1032;52.542;13.440;2023-01-16T12:50:06;8.30;99.10
2054;DHT22;1032;52.542;13.440;2023-01-16T12:53:06;8.20;99.00
2054;DHT22;1032;52.542;13.440;2023-01-16T12:55:42;8.10;98.70
2054;DHT22;1032;52.542;13.440;2023-01-16T12:58:13;7.80;98.70
2054;DHT22;1032;52.542;13.440;2023-01-16T13:00:44;8.30;98.70
2054;DHT22;1032;52.542;13.440;2023-01-16T13:03:20;8.60;98.50
2054;DHT22;1032;52.542;13.440;2023-01-16T13:05:53;8.50;98.00
2054;DHT22;1032;52.542;13.440;2023-01-16T13:08:23;8.50;98.00
2054;DHT22;1032;52.542;13.440;2023-01-16T13:10:55;8.40;97.70
2054;DHT22;1032;52.542;13.440;2023-01-16T13:13:45;8.30;97.80
2054;DHT22;1032;52.542;13.440;2023-01-16T13:16:16;8.70;97.60
2054;DHT22;1032;52.542;13.440;2023-01-16T13:18:47;9.00;97.50
2054;DHT22;1032;52.542;13.440;2023-01-16T13:21:19;8.50;97.30
2054;DHT22;1032;52.542;13.440;2023-01-16T13:23:49;8.40;97.40
2054;DHT22;1032;52.542;13.440;2023-01-16T13:26:19;8.60;97.60
2054;DHT22;1032;52.542;13.440;2023-01-16T13:28:51;8.50;97.30
2054;DHT22;1032;52.542;13.440;2023-01-16T13:31:25;8.60;97.20
2054;DHT22;1032;52.542;13.440;2023-01-16T13:33:57;8.50;97.20
2054;DHT22;1032;52.542;13.440;2023-01-16T13:36:46;8.40;97.10
2054;DHT22;1032;52.542;13.440;2023-01-16T13:42:26;8.40;96.80
2054;DHT22;1032;52.542;13.440;2023-01-16T13:44:58;7.80;96.80
2054;DHT22;1032;52.542;13.440;2023-01-16T13:47:44;8.40;97.20
2054;DHT22;1032;52.542;13.440;2023-01-16T13:50:20;8.40;97.30
2054;DHT22;1032;52.542;13.440;2023-01-16T13:52:48;8.20;97.10
2054;DHT22;1032;52.542;13.440;2023-01-16T13:55:26;8.00;97.10
2054;DHT22;1032;52.542;13.440;2023-01-16T13:57:55;9.00;97.30
2054;DHT22;1032;52.542;13.440;2023-01-16T14:00:23;8.60;97.00
2054;DHT22;1032;52.542;13.440;2023-01-16T14:03:03;8.40;96.90
2054;DHT22;1032;52.542;13.440;2023-01-16T14:05:45;8.40;96.50
2054;DHT22;1032;52.542;13.440;2023-01-16T14:08:26;8.30;96.70
2054;DHT22;1032;52.542;13.440;2023-01-16T14:11:28;8.30;96.80
2054;DHT22;1032;52.542;13.440;2023-01-16T14:18:01;8.40;97.00
2054;DHT22;1032;52.542;13.440;2023-01-16T14:20:43;8.30;97.20
2054;DHT22;1032;52.542;13.440;2023-01-16T14:23:18;8.90;97.00
2054;DHT22;1032;52.542;13.440;2023-01-16T14:26:05;8.40;97.00
2054;DHT22;1032;52.542;13.440;2023-01-16T14:28:33;8.40;97.30
2054;DHT22;1032;52.542;13.440;2023-01-16T14:31:00;8.50;97.50
2054;DHT22;1032;52.542;13.440;2023-01-16T14:33:28;9.30;97.80
2054;DHT22;1032;52.542;13.440;2023-01-16T14:35:58;8.30;97.30
2054;DHT22;1032;52.542;13.440;2023-01-16T14:38:29;8.20;97.50
2054;DHT22;1032;52.542;13.440;2023-01-16T14:41:01;7.90;97.60
2054;DHT22;1032;52.542;13.440;2023-01-16T14:44:02;8.40;98.00
2054;DHT22;1032;52.542;13.440;2023-01-16T14:46:51;8.40;98.00
2054;DHT22;1032;52.542;13.440;2023-01-16T14:49:43;8.50;98.30
2054;DHT22;1032;52.542;13.440;2023-01-16T14:52:52;8.30;98.30
2054;DHT22;1032;52.542;13.440;2023-01-16T14:55:49;7.70;98.00
2054;DHT22;1032;52.542;13.440;2023-01-16T14:58:25;8.10;98.30
2054;DHT22;1032;52.542;13.440;2023-01-16T15:00:55;8.00;98.40
2054;DHT22;1032;52.542;13.440;2023-01-16T15:03:43;8.00;98.50
2054;DHT22;1032;52.542;13.440;2023-01-16T15:06:12;8.00;98.70
2054;DHT22;1032;52.542;13.440;2023-01-16T15:08:42;8.00;98.80
2054;DHT22;1032;52.542;13.440;2023-01-16T15:11:15;8.20;99.10
2054;DHT22;1032;52.542;13.440;2023-01-16T15:14:13;7.70;98.60
2054;DHT22;1032;52.542;13.440;2023-01-16T15:16:58;8.30;98.30
2054;DHT22;1032;52.542;13.440;2023-01-16T15:19:59;8.30;98.70
2054;DHT22;1032;52.542;13.440;2023-01-16T15:22:45;8.10;98.90
2054;DHT22;1032;52.542;13.440;2023-01-16T15:25:22;7.60;99.20
2054;DHT22;1032;52.542;13.440;2023-01-16T15:27:58;8.40;99.50
2054;DHT22;1032;52.542;13.440;2023-01-16T15:30:27;7.70;99.30
2054;DHT22;1032;52.542;13.440;2023-01-16T15:32:55;7.70;99.40
2054;DHT22;1032;52.542;13.440;2023-01-16T15:35:43;7.90;99.70
2054;DHT22;1032;52.542;13.440;2023-01-16T15:38:11;7.70;99.60
2054;DHT22;1032;52.542;13.440;2023-01-16T15:40:48;7.30;99.50
2054;DHT22;1032;52.542;13.440;2023-01-16T15:43:16;7.80;99.80
2054;DHT22;1032;52.542;13.440;2023-01-16T15:46:06;8.10;99.90
2054;DHT22;1032;52.542;13.440;2023-01-16T15:48:58;7.80;99.90
2054;DHT22;1032;52.542;13.440;2023-01-16T15:51:28;7.70;99.90
2054;DHT22;1032;52.542;13.440;2023-01-16T15:53:56;7.30;99.90
2054;DHT22;1032;52.542;13.440;2023-01-16T15:56:32;7.70;99.90
2054;DHT22;1032;52.542;13.440;2023-01-16T15:59:00;7.20;99.90
2054;DHT22;1032;52.542;13.440;2023-01-16T16:01:28;7.40;99.90
2054;DHT22;1032;52.542;13.440;2023-01-16T16:03:55;7.50;99.90
2054;DHT22;1032;52.542;13.440;2023-01-16T16:06:23;7.00;99.90
2054;DHT22;1032;52.542;13.440;2023-01-16T16:08:52;7.70;99.90
2054;DHT22;1032;52.542;13.440;2023-01-16T16:11:21;7.10;99.90
2054;DHT22;1032;52.542;13.440;2023-01-16T16:14:14;7.40;99.90
2054;DHT22;1032;52.542;13.440;2023-01-16T16:17:03;7.80;99.90
2054;DHT22;1032;52.542;13.440;2023-01-16T16:19:48;7.20;99.90
2054;DHT22;1032;52.542;13.440;2023-01-16T16:22:18;7.60;99.90
2054;DHT22;1032;52.542;13.440;2023-01-16T16:25:08;7.50;99.90
2054;DHT22;1032;52.542;13.440;2023-01-16T16:27:35;7.60;99.90
2054;DHT22;1032;52.542;13.440;2023-01-16T16:30:04;6.90;99.90
2054;DHT22;1032;52.542;13.440;2023-01-16T16:32:35;7.60;99.90
2054;DHT22;1032;52.542;13.440;2023-01-16T16:35:03;7.40;99.90
2054;DHT22;1032;52.542;13.440;2023-01-16T16:37:30;7.20;99.90
2054;DHT22;1032;52.542;13.440;2023-01-16T16:40:06;7.30;99.90
2054;DHT22;1032;52.542;13.440;2023-01-16T16:42:50;7.20;99.90
2054;DHT22;1032;52.542;13.440;2023-01-16T16:45:30;7.20;99.90
2054;DHT22;1032;52.542;13.440;2023-01-16T16:48:28;7.20;99.90
2054;DHT22;1032;52.542;13.440;2023-01-16T16:51:17;7.40;99.90